sensor_id;sensor_type;location;lat;lon;timestamp;P1;durP1;ratioP1;P2;durP2;ratioP2
7479;SDS011;3781;42.272;22.658;2023-07-31T00:01:24;1.63;;;1.53;;
7479;SDS011;3781;42.272;22.658;2023-07-31T00:03:52;1.33;;;1.23;;
7479;SDS011;3781;42.272;22.658;2023-07-31T00:06:19;1.03;;;1.03;;
7479;SDS011;3781;42.272;22.658;2023-07-31T00:08:45;1.23;;;1.17;;
7479;SDS011;3781;42.272;22.658;2023-07-31T00:11:12;0.80;;;0.80;;
7479;SDS011;3781;42.272;22.658;2023-07-31T00:13:39;1.33;;;1.23;;
7479;SDS011;3781;42.272;22.658;2023-07-31T00:16:06;2.10;;;1.70;;
7479;SDS011;3781;42.272;22.658;2023-07-31T00:18:32;1.57;;;1.33;;
7479;SDS011;3781;42.272;22.658;2023-07-31T00:21:00;2.37;;;1.57;;
7479;SDS011;3781;42.272;22.658;2023-07-31T00:23:27;1.63;;;1.20;;
7479;SDS011;3781;42.272;22.658;2023-07-31T00:25:54;1.57;;;1.47;;
7479;SDS011;3781;42.272;22.658;2023-07-31T00:28:21;1.00;;;1.00;;
7479;SDS011;3781;42.272;22.658;2023-07-31T00:30:47;1.40;;;1.30;;
7479;SDS011;3781;42.272;22.658;2023-07-31T00:33:14;1.33;;;1.23;;
7479;SDS011;3781;42.272;22.658;2023-07-31T00:35:41;1.80;;;1.43;;
7479;SDS011;3781;42.272;22.658;2023-07-31T00:38:09;2.63;;;2.37;;
7479;SDS011;3781;42.272;22.658;2023-07-31T00:40:36;1.63;;;1.53;;
7479;SDS011;3781;42.272;22.658;2023-07-31T00:43:03;2.07;;;1.80;;
7479;SDS011;3781;42.272;22.658;2023-07-31T00:45:30;2.67;;;1.73;;
7479;SDS011;3781;42.272;22.658;2023-07-31T00:47:57;2.10;;;1.73;;
7479;SDS011;3781;42.272;22.658;2023-07-31T00:50:24;3.13;;;1.83;;
7479;SDS011;3781;42.272;22.658;2023-07-31T00:52:51;2.20;;;1.97;;
7479;SDS011;3781;42.272;22.658;2023-07-31T00:55:20;1.63;;;1.53;;
7479;SDS011;3781;42.272;22.658;2023-07-31T00:57:47;2.30;;;1.87;;
7479;SDS011;3781;42.272;22.658;2023-07-31T01:00:15;1.20;;;1.13;;
7479;SDS011;3781;42.272;22.658;2023-07-31T01:02:42;2.37;;;1.30;;
7479;SDS011;3781;42.272;22.658;2023-07-31T01:05:09;1.60;;;1.27;;
7479;SDS011;3781;42.272;22.658;2023-07-31T01:07:39;1.37;;;1.27;;
7479;SDS011;3781;42.272;22.658;2023-07-31T01:10:10;1.50;;;1.00;;
7479;SDS011;3781;42.272;22.658;2023-07-31T01:12:43;1.27;;;1.17;;
7479;SDS011;3781;42.272;22.658;2023-07-31T01:15:11;0.97;;;0.97;;
7479;SDS011;3781;42.272;22.658;2023-07-31T01:17:40;2.03;;;0.97;;
7479;SDS011;3781;42.272;22.658;2023-07-31T01:20:09;2.23;;;1.40;;
7479;SDS011;3781;42.272;22.658;2023-07-31T01:25:56;1.20;;;1.20;;
7479;SDS011;3781;42.272;22.658;2023-07-31T01:28:30;1.40;;;1.20;;
7479;SDS011;3781;42.272;22.658;2023-07-31T01:31:04;1.33;;;0.77;;
7479;SDS011;3781;42.272;22.658;2023-07-31T01:33:36;1.60;;;1.10;;
7479;SDS011;3781;42.272;22.658;2023-07-31T01:36:04;1.67;;;1.30;;
7479;SDS011;3781;42.272;22.658;2023-07-31T01:38:31;2.80;;;1.30;;
7479;SDS011;3781;42.272;22.658;2023-07-31T01:40:59;1.73;;;1.27;;
7479;SDS011;3781;42.272;22.658;2023-07-31T01:43:26;2.20;;;1.27;;
7479;SDS011;3781;42.272;22.658;2023-07-31T01:45:53;1.43;;;1.17;;
7479;SDS011;3781;42.272;22.658;2023-07-31T01:48:20;2.97;;;1.60;;
7479;SDS011;3781;42.272;22.658;2023-07-31T01:50:46;1.70;;;1.53;;
7479;SDS011;3781;42.272;22.658;2023-07-31T01:53:13;1.83;;;1.73;;
7479;SDS011;3781;42.272;22.658;2023-07-31T01:55:40;2.27;;;1.27;;
7479;SDS011;3781;42.272;22.658;2023-07-31T01:58:08;1.00;;;0.87;;
7479;SDS011;3781;42.272;22.658;2023-07-31T02:00:34;1.37;;;1.27;;
7479;SDS011;3781;42.272;22.658;2023-07-31T02:03:01;0.90;;;0.90;;
7479;SDS011;3781;42.272;22.658;2023-07-31T02:05:28;1.33;;;1.27;;
7479;SDS011;3781;42.272;22.658;2023-07-31T02:07:55;2.10;;;1.50;;
7479;SDS011;3781;42.272;22.658;2023-07-31T02:10:21;1.97;;;1.40;;
7479;SDS011;3781;42.272;22.658;2023-07-31T02:12:49;1.60;;;1.50;;
7479;SDS011;3781;42.272;22.658;2023-07-31T02:15:17;2.00;;;1.83;;
7479;SDS011;3781;42.272;22.658;2023-07-31T02:17:44;3.53;;;1.53;;
7479;SDS011;3781;42.272;22.658;2023-07-31T02:20:11;2.73;;;1.13;;
7479;SDS011;3781;42.272;22.658;2023-07-31T02:22:37;1.97;;;1.37;;
7479;SDS011;3781;42.272;22.658;2023-07-31T02:25:04;1.83;;;1.63;;
7479;SDS011;3781;42.272;22.658;2023-07-31T02:27:31;1.57;;;1.00;;
7479;SDS011;3781;42.272;22.658;2023-07-31T02:29:58;0.97;;;0.93;;
7479;SDS011;3781;42.272;22.658;2023-07-31T02:32:26;1.40;;;1.30;;
7479;SDS011;3781;42.272;22.658;2023-07-31T02:34:54;1.30;;;1.17;;
7479;SDS011;3781;42.272;22.658;2023-07-31T02:37:21;1.37;;;1.27;;
7479;SDS011;3781;42.272;22.658;2023-07-31T02:39:48;1.60;;;1.30;;
7479;SDS011;3781;42.272;22.658;2023-07-31T02:42:15;1.00;;;0.97;;
7479;SDS011;3781;42.272;22.658;2023-07-31T02:44:41;1.27;;;0.87;;
7479;SDS011;3781;42.272;22.658;2023-07-31T02:47:08;0.80;;;0.80;;
7479;SDS011;3781;42.272;22.658;2023-07-31T02:49:36;1.53;;;1.43;;
7479;SDS011;3781;42.272;22.658;2023-07-31T02:52:03;1.17;;;1.13;;
7479;SDS011;3781;42.272;22.658;2023-07-31T02:54:30;1.07;;;1.07;;
7479;SDS011;3781;42.272;22.658;2023-07-31T02:56:57;1.20;;;1.10;;
7479;SDS011;3781;42.272;22.658;2023-07-31T02:59:24;1.83;;;1.57;;
7479;SDS011;3781;42.272;22.658;2023-07-31T03:01:51;1.03;;;0.87;;
7479;SDS011;3781;42.272;22.658;2023-07-31T03:04:18;1.20;;;1.10;;
7479;SDS011;3781;42.272;22.658;2023-07-31T03:06:46;3.13;;;1.57;;
7479;SDS011;3781;42.272;22.658;2023-07-31T03:09:12;1.90;;;1.33;;
7479;SDS011;3781;42.272;22.658;2023-07-31T03:11:39;2.00;;;1.33;;
7479;SDS011;3781;42.272;22.658;2023-07-31T03:14:06;1.10;;;1.10;;
7479;SDS011;3781;42.272;22.658;2023-07-31T03:16:33;1.40;;;1.30;;
7479;SDS011;3781;42.272;22.658;2023-07-31T03:18:59;1.97;;;1.30;;
7479;SDS011;3781;42.272;22.658;2023-07-31T03:21:26;1.23;;;1.13;;
7479;SDS011;3781;42.272;22.658;2023-07-31T03:23:54;1.37;;;1.30;;
7479;SDS011;3781;42.272;22.658;2023-07-31T03:26:21;2.40;;;1.30;;
7479;SDS011;3781;42.272;22.658;2023-07-31T03:28:47;2.23;;;1.00;;
7479;SDS011;3781;42.272;22.658;2023-07-31T03:31:14;1.60;;;1.30;;
7479;SDS011;3781;42.272;22.658;2023-07-31T03:33:41;1.07;;;1.07;;
7479;SDS011;3781;42.272;22.658;2023-07-31T03:36:08;2.13;;;1.50;;
7479;SDS011;3781;42.272;22.658;2023-07-31T03:38:34;1.63;;;1.40;;
7479;SDS011;3781;42.272;22.658;2023-07-31T03:41:02;1.93;;;1.70;;
7479;SDS011;3781;42.272;22.658;2023-07-31T03:43:31;1.43;;;1.33;;
7479;SDS011;3781;42.272;22.658;2023-07-31T03:45:58;1.33;;;1.13;;
7479;SDS011;3781;42.272;22.658;2023-07-31T03:48:25;1.87;;;1.30;;
7479;SDS011;3781;42.272;22.658;2023-07-31T03:50:52;2.00;;;1.53;;
7479;SDS011;3781;42.272;22.658;2023-07-31T03:53:19;1.90;;;1.73;;
7479;SDS011;3781;42.272;22.658;2023-07-31T03:55:46;1.90;;;1.70;;
7479;SDS011;3781;42.272;22.658;2023-07-31T03:58:14;1.43;;;1.33;;
7479;SDS011;3781;42.272;22.658;2023-07-31T04:00:40;1.80;;;1.70;;
7479;SDS011;3781;42.272;22.658;2023-07-31T04:03:07;1.93;;;1.83;;
7479;SDS011;3781;42.272;22.658;2023-07-31T04:05:37;2.33;;;2.03;;
7479;SDS011;3781;42.272;22.658;2023-07-31T04:08:04;2.10;;;1.57;;
7479;SDS011;3781;42.272;22.658;2023-07-31T04:10:31;1.70;;;1.60;;
7479;SDS011;3781;42.272;22.658;2023-07-31T04:12:58;4.43;;;2.27;;
7479;SDS011;3781;42.272;22.658;2023-07-31T04:15:27;2.00;;;1.57;;
7479;SDS011;3781;42.272;22.658;2023-07-31T04:17:54;2.33;;;1.83;;
7479;SDS011;3781;42.272;22.658;2023-07-31T04:20:20;2.43;;;1.93;;
7479;SDS011;3781;42.272;22.658;2023-07-31T04:22:47;2.33;;;2.13;;
7479;SDS011;3781;42.272;22.658;2023-07-31T04:25:14;2.20;;;1.80;;
7479;SDS011;3781;42.272;22.658;2023-07-31T04:27:41;1.70;;;1.60;;
7479;SDS011;3781;42.272;22.658;2023-07-31T04:30:08;1.83;;;1.73;;
7479;SDS011;3781;42.272;22.658;2023-07-31T04:32:36;2.50;;;2.27;;
7479;SDS011;3781;42.272;22.658;2023-07-31T04:35:03;5.03;;;2.90;;
7479;SDS011;3781;42.272;22.658;2023-07-31T04:37:30;6.67;;;3.50;;
7479;SDS011;3781;42.272;22.658;2023-07-31T04:39:57;7.67;;;2.53;;
7479;SDS011;3781;42.272;22.658;2023-07-31T04:42:24;5.97;;;3.97;;
7479;SDS011;3781;42.272;22.658;2023-07-31T04:44:51;4.50;;;2.87;;
7479;SDS011;3781;42.272;22.658;2023-07-31T04:51:12;3.47;;;2.70;;
7479;SDS011;3781;42.272;22.658;2023-07-31T04:53:38;3.37;;;2.17;;
7479;SDS011;3781;42.272;22.658;2023-07-31T04:56:05;3.20;;;2.90;;
7479;SDS011;3781;42.272;22.658;2023-07-31T04:58:32;3.80;;;2.23;;
7479;SDS011;3781;42.272;22.658;2023-07-31T05:00:59;5.00;;;3.27;;
7479;SDS011;3781;42.272;22.658;2023-07-31T05:03:25;3.40;;;2.77;;
7479;SDS011;3781;42.272;22.658;2023-07-31T05:05:52;3.07;;;2.33;;
7479;SDS011;3781;42.272;22.658;2023-07-31T05:08:20;5.70;;;2.87;;
7479;SDS011;3781;42.272;22.658;2023-07-31T05:10:47;3.30;;;2.50;;
7479;SDS011;3781;42.272;22.658;2023-07-31T05:13:14;4.13;;;3.07;;
7479;SDS011;3781;42.272;22.658;2023-07-31T05:15:40;4.23;;;2.47;;
7479;SDS011;3781;42.272;22.658;2023-07-31T05:18:07;4.97;;;4.03;;
7479;SDS011;3781;42.272;22.658;2023-07-31T05:20:34;5.27;;;3.63;;
7479;SDS011;3781;42.272;22.658;2023-07-31T05:23:01;4.70;;;2.40;;
7479;SDS011;3781;42.272;22.658;2023-07-31T05:25:29;5.23;;;3.27;;
7479;SDS011;3781;42.272;22.658;2023-07-31T05:27:56;4.33;;;3.47;;
7479;SDS011;3781;42.272;22.658;2023-07-31T05:30:22;3.80;;;3.13;;
7479;SDS011;3781;42.272;22.658;2023-07-31T05:32:49;5.47;;;3.50;;
7479;SDS011;3781;42.272;22.658;2023-07-31T05:35:16;4.93;;;3.50;;
7479;SDS011;3781;42.272;22.658;2023-07-31T05:37:43;5.20;;;3.80;;
7479;SDS011;3781;42.272;22.658;2023-07-31T05:40:09;7.97;;;3.63;;
7479;SDS011;3781;42.272;22.658;2023-07-31T05:42:38;4.90;;;3.70;;
7479;SDS011;3781;42.272;22.658;2023-07-31T05:45:05;4.67;;;3.17;;
7479;SDS011;3781;42.272;22.658;2023-07-31T05:47:33;4.37;;;3.30;;
7479;SDS011;3781;42.272;22.658;2023-07-31T05:49:59;3.73;;;3.00;;
7479;SDS011;3781;42.272;22.658;2023-07-31T05:52:26;3.50;;;3.10;;
7479;SDS011;3781;42.272;22.658;2023-07-31T05:54:56;5.27;;;4.47;;
7479;SDS011;3781;42.272;22.658;2023-07-31T05:57:23;4.90;;;3.40;;
7479;SDS011;3781;42.272;22.658;2023-07-31T05:59:51;6.03;;;4.27;;
7479;SDS011;3781;42.272;22.658;2023-07-31T06:02:19;5.70;;;4.27;;
7479;SDS011;3781;42.272;22.658;2023-07-31T06:04:45;5.57;;;3.83;;
7479;SDS011;3781;42.272;22.658;2023-07-31T06:07:12;8.37;;;4.47;;
7479;SDS011;3781;42.272;22.658;2023-07-31T06:09:39;5.20;;;4.40;;
7479;SDS011;3781;42.272;22.658;2023-07-31T06:12:06;5.40;;;3.63;;
7479;SDS011;3781;42.272;22.658;2023-07-31T06:14:33;5.20;;;3.50;;
7479;SDS011;3781;42.272;22.658;2023-07-31T06:17:02;7.73;;;4.43;;
7479;SDS011;3781;42.272;22.658;2023-07-31T06:19:28;5.70;;;3.30;;
7479;SDS011;3781;42.272;22.658;2023-07-31T06:21:55;5.67;;;4.13;;
7479;SDS011;3781;42.272;22.658;2023-07-31T06:24:22;6.17;;;4.13;;
7479;SDS011;3781;42.272;22.658;2023-07-31T06:26:49;5.77;;;4.40;;
7479;SDS011;3781;42.272;22.658;2023-07-31T06:29:16;6.53;;;3.47;;
7479;SDS011;3781;42.272;22.658;2023-07-31T06:31:42;6.80;;;4.40;;
7479;SDS011;3781;42.272;22.658;2023-07-31T06:34:10;7.13;;;5.10;;
7479;SDS011;3781;42.272;22.658;2023-07-31T06:36:37;6.00;;;3.80;;
7479;SDS011;3781;42.272;22.658;2023-07-31T06:39:04;5.30;;;4.23;;
7479;SDS011;3781;42.272;22.658;2023-07-31T06:41:30;10.57;;;4.90;;
7479;SDS011;3781;42.272;22.658;2023-07-31T06:43:57;5.67;;;3.80;;
7479;SDS011;3781;42.272;22.658;2023-07-31T06:46:24;7.73;;;3.60;;
7479;SDS011;3781;42.272;22.658;2023-07-31T06:48:50;5.93;;;4.03;;
7479;SDS011;3781;42.272;22.658;2023-07-31T06:51:19;7.53;;;4.53;;
7479;SDS011;3781;42.272;22.658;2023-07-31T06:53:45;5.57;;;3.83;;
7479;SDS011;3781;42.272;22.658;2023-07-31T06:56:12;6.77;;;4.07;;
7479;SDS011;3781;42.272;22.658;2023-07-31T06:58:39;7.73;;;3.53;;
7479;SDS011;3781;42.272;22.658;2023-07-31T07:01:06;4.90;;;3.93;;
7479;SDS011;3781;42.272;22.658;2023-07-31T07:03:32;4.80;;;3.97;;
7479;SDS011;3781;42.272;22.658;2023-07-31T07:05:59;5.47;;;3.70;;
7479;SDS011;3781;42.272;22.658;2023-07-31T07:08:27;4.03;;;3.63;;
7479;SDS011;3781;42.272;22.658;2023-07-31T07:10:54;4.37;;;3.37;;
7479;SDS011;3781;42.272;22.658;2023-07-31T07:13:21;5.13;;;3.83;;
7479;SDS011;3781;42.272;22.658;2023-07-31T07:15:47;4.57;;;2.93;;
7479;SDS011;3781;42.272;22.658;2023-07-31T07:18:15;4.20;;;3.77;;
7479;SDS011;3781;42.272;22.658;2023-07-31T07:20:45;6.07;;;3.90;;
7479;SDS011;3781;42.272;22.658;2023-07-31T07:23:13;5.90;;;3.97;;
7479;SDS011;3781;42.272;22.658;2023-07-31T07:25:41;3.23;;;2.80;;
7479;SDS011;3781;42.272;22.658;2023-07-31T07:28:08;3.37;;;2.00;;
7479;SDS011;3781;42.272;22.658;2023-07-31T07:30:35;3.00;;;2.47;;
7479;SDS011;3781;42.272;22.658;2023-07-31T07:33:02;3.03;;;2.40;;
7479;SDS011;3781;42.272;22.658;2023-07-31T07:35:29;4.70;;;2.77;;
7479;SDS011;3781;42.272;22.658;2023-07-31T07:37:55;2.53;;;2.20;;
7479;SDS011;3781;42.272;22.658;2023-07-31T07:40:22;2.97;;;2.70;;
7479;SDS011;3781;42.272;22.658;2023-07-31T07:42:51;3.00;;;2.47;;
7479;SDS011;3781;42.272;22.658;2023-07-31T07:45:17;3.20;;;2.60;;
7479;SDS011;3781;42.272;22.658;2023-07-31T07:47:44;3.23;;;2.50;;
7479;SDS011;3781;42.272;22.658;2023-07-31T07:50:11;2.93;;;2.67;;
7479;SDS011;3781;42.272;22.658;2023-07-31T07:52:37;3.27;;;2.47;;
7479;SDS011;3781;42.272;22.658;2023-07-31T07:55:04;2.47;;;2.23;;
7479;SDS011;3781;42.272;22.658;2023-07-31T07:57:32;2.47;;;2.23;;
7479;SDS011;3781;42.272;22.658;2023-07-31T07:59:59;4.00;;;2.97;;
7479;SDS011;3781;42.272;22.658;2023-07-31T08:02:25;4.23;;;2.90;;
7479;SDS011;3781;42.272;22.658;2023-07-31T08:04:52;2.53;;;2.33;;
7479;SDS011;3781;42.272;22.658;2023-07-31T08:07:19;4.23;;;3.70;;
7479;SDS011;3781;42.272;22.658;2023-07-31T08:09:46;5.33;;;3.20;;
7479;SDS011;3781;42.272;22.658;2023-07-31T08:12:12;4.57;;;3.07;;
7479;SDS011;3781;42.272;22.658;2023-07-31T08:14:39;3.47;;;2.87;;
7479;SDS011;3781;42.272;22.658;2023-07-31T08:17:07;2.93;;;2.20;;
7479;SDS011;3781;42.272;22.658;2023-07-31T08:19:34;2.73;;;2.13;;
7479;SDS011;3781;42.272;22.658;2023-07-31T08:22:01;3.63;;;2.30;;
7479;SDS011;3781;42.272;22.658;2023-07-31T08:24:27;2.97;;;2.07;;
7479;SDS011;3781;42.272;22.658;2023-07-31T08:26:54;3.53;;;2.07;;
7479;SDS011;3781;42.272;22.658;2023-07-31T08:29:21;2.70;;;1.87;;
7479;SDS011;3781;42.272;22.658;2023-07-31T08:31:48;2.43;;;2.10;;
7479;SDS011;3781;42.272;22.658;2023-07-31T08:34:16;2.07;;;1.87;;
7479;SDS011;3781;42.272;22.658;2023-07-31T08:36:42;3.17;;;2.57;;
7479;SDS011;3781;42.272;22.658;2023-07-31T08:39:09;2.50;;;2.10;;
7479;SDS011;3781;42.272;22.658;2023-07-31T08:41:37;2.30;;;2.10;;
7479;SDS011;3781;42.272;22.658;2023-07-31T08:44:04;2.40;;;2.20;;
7479;SDS011;3781;42.272;22.658;2023-07-31T08:46:31;3.33;;;1.70;;
7479;SDS011;3781;42.272;22.658;2023-07-31T08:48:59;1.80;;;1.70;;
7479;SDS011;3781;42.272;22.658;2023-07-31T08:51:27;1.80;;;1.70;;
7479;SDS011;3781;42.272;22.658;2023-07-31T08:53:56;2.83;;;2.57;;
7479;SDS011;3781;42.272;22.658;2023-07-31T08:56:23;2.17;;;1.97;;
7479;SDS011;3781;42.272;22.658;2023-07-31T08:58:51;1.93;;;1.73;;
7479;SDS011;3781;42.272;22.658;2023-07-31T09:01:20;2.13;;;1.53;;
7479;SDS011;3781;42.272;22.658;2023-07-31T09:03:48;1.90;;;1.80;;
7479;SDS011;3781;42.272;22.658;2023-07-31T09:06:17;1.70;;;1.43;;
7479;SDS011;3781;42.272;22.658;2023-07-31T09:08:49;1.73;;;1.33;;
7479;SDS011;3781;42.272;22.658;2023-07-31T09:11:17;3.07;;;2.10;;
7479;SDS011;3781;42.272;22.658;2023-07-31T09:13:43;1.33;;;1.07;;
7479;SDS011;3781;42.272;22.658;2023-07-31T09:16:12;1.27;;;0.90;;
7479;SDS011;3781;42.272;22.658;2023-07-31T09:18:52;0.80;;;0.50;;
7479;SDS011;3781;42.272;22.658;2023-07-31T09:21:21;1.63;;;1.00;;
7479;SDS011;3781;42.272;22.658;2023-07-31T09:23:50;1.47;;;1.37;;
7479;SDS011;3781;42.272;22.658;2023-07-31T09:26:28;1.27;;;1.17;;
7479;SDS011;3781;42.272;22.658;2023-07-31T09:28:56;1.80;;;0.73;;
7479;SDS011;3781;42.272;22.658;2023-07-31T09:31:31;0.90;;;0.90;;
7479;SDS011;3781;42.272;22.658;2023-07-31T09:33:58;1.57;;;1.47;;
7479;SDS011;3781;42.272;22.658;2023-07-31T09:36:28;1.23;;;1.23;;
7479;SDS011;3781;42.272;22.658;2023-07-31T09:38:57;1.40;;;0.80;;
7479;SDS011;3781;42.272;22.658;2023-07-31T09:41:28;0.80;;;0.70;;
7479;SDS011;3781;42.272;22.658;2023-07-31T09:43:54;1.00;;;1.00;;
7479;SDS011;3781;42.272;22.658;2023-07-31T09:46:21;0.82;;;0.82;;
7479;SDS011;3781;42.272;22.658;2023-07-31T09:48:48;0.60;;;0.60;;
7479;SDS011;3781;42.272;22.658;2023-07-31T09:51:15;0.60;;;0.60;;
7479;SDS011;3781;42.272;22.658;2023-07-31T09:53:42;0.90;;;0.90;;
7479;SDS011;3781;42.272;22.658;2023-07-31T09:56:17;1.38;;;1.10;;
7479;SDS011;3781;42.272;22.658;2023-07-31T09:58:47;0.70;;;0.70;;
7479;SDS011;3781;42.272;22.658;2023-07-31T10:01:15;0.50;;;0.50;;
7479;SDS011;3781;42.272;22.658;2023-07-31T10:03:42;0.70;;;0.70;;
7479;SDS011;3781;42.272;22.658;2023-07-31T10:06:12;0.88;;;0.70;;
7479;SDS011;3781;42.272;22.658;2023-07-31T10:08:41;0.73;;;0.73;;
7479;SDS011;3781;42.272;22.658;2023-07-31T10:11:12;0.55;;;0.55;;
7479;SDS011;3781;42.272;22.658;2023-07-31T10:13:41;1.23;;;1.15;;
7479;SDS011;3781;42.272;22.658;2023-07-31T10:16:12;1.00;;;0.98;;
7479;SDS011;3781;42.272;22.658;2023-07-31T10:18:44;1.98;;;1.20;;
7479;SDS011;3781;42.272;22.658;2023-07-31T10:21:12;1.15;;;1.13;;
7479;SDS011;3781;42.272;22.658;2023-07-31T10:23:40;1.33;;;1.20;;
7479;SDS011;3781;42.272;22.658;2023-07-31T10:26:08;0.88;;;0.88;;
7479;SDS011;3781;42.272;22.658;2023-07-31T10:28:37;0.82;;;0.82;;
7479;SDS011;3781;42.272;22.658;2023-07-31T10:31:06;1.52;;;1.42;;
7479;SDS011;3781;42.272;22.658;2023-07-31T10:33:34;1.10;;;1.10;;
7479;SDS011;3781;42.272;22.658;2023-07-31T10:36:13;1.08;;;1.08;;
7479;SDS011;3781;42.272;22.658;2023-07-31T10:38:41;2.05;;;1.70;;
7479;SDS011;3781;42.272;22.658;2023-07-31T10:41:08;1.45;;;1.35;;
7479;SDS011;3781;42.272;22.658;2023-07-31T10:43:36;2.08;;;1.88;;
7479;SDS011;3781;42.272;22.658;2023-07-31T10:46:08;1.70;;;1.60;;
7479;SDS011;3781;42.272;22.658;2023-07-31T10:48:38;2.33;;;1.92;;
7479;SDS011;3781;42.272;22.658;2023-07-31T10:51:07;1.73;;;1.63;;
7479;SDS011;3781;42.272;22.658;2023-07-31T10:53:37;3.35;;;2.22;;
7479;SDS011;3781;42.272;22.658;2023-07-31T10:56:06;1.95;;;1.85;;
7479;SDS011;3781;42.272;22.658;2023-07-31T10:58:34;1.67;;;1.48;;
7479;SDS011;3781;42.272;22.658;2023-07-31T11:01:05;1.58;;;1.48;;
7479;SDS011;3781;42.272;22.658;2023-07-31T11:03:45;2.10;;;2.00;;
7479;SDS011;3781;42.272;22.658;2023-07-31T11:06:13;1.52;;;1.42;;
7479;SDS011;3781;42.272;22.658;2023-07-31T11:08:41;2.00;;;1.63;;
7479;SDS011;3781;42.272;22.658;2023-07-31T11:11:11;1.95;;;1.85;;
7479;SDS011;3781;42.272;22.658;2023-07-31T11:13:44;1.80;;;1.70;;
7479;SDS011;3781;42.272;22.658;2023-07-31T11:16:14;1.15;;;1.15;;
7479;SDS011;3781;42.272;22.658;2023-07-31T11:18:43;1.92;;;1.75;;
7479;SDS011;3781;42.272;22.658;2023-07-31T11:21:11;1.63;;;1.52;;
7479;SDS011;3781;42.272;22.658;2023-07-31T11:23:39;1.48;;;1.38;;
7479;SDS011;3781;42.272;22.658;2023-07-31T11:26:08;1.75;;;1.60;;
7479;SDS011;3781;42.272;22.658;2023-07-31T11:28:35;1.38;;;1.27;;
7479;SDS011;3781;42.272;22.658;2023-07-31T11:31:02;1.30;;;1.13;;
7479;SDS011;3781;42.272;22.658;2023-07-31T11:33:29;1.60;;;1.50;;
7479;SDS011;3781;42.272;22.658;2023-07-31T11:35:57;1.73;;;1.60;;
7479;SDS011;3781;42.272;22.658;2023-07-31T11:38:26;3.30;;;3.00;;
7479;SDS011;3781;42.272;22.658;2023-07-31T11:40:54;11.75;;;5.28;;
7479;SDS011;3781;42.272;22.658;2023-07-31T11:43:22;4.88;;;3.75;;
7479;SDS011;3781;42.272;22.658;2023-07-31T11:45:53;2.30;;;2.10;;
7479;SDS011;3781;42.272;22.658;2023-07-31T11:48:24;2.47;;;2.28;;
7479;SDS011;3781;42.272;22.658;2023-07-31T11:50:53;2.97;;;2.67;;
7479;SDS011;3781;42.272;22.658;2023-07-31T11:53:25;2.28;;;2.15;;
7479;SDS011;3781;42.272;22.658;2023-07-31T11:55:54;1.63;;;1.52;;
7479;SDS011;3781;42.272;22.658;2023-07-31T11:58:27;1.98;;;1.77;;
7479;SDS011;3781;42.272;22.658;2023-07-31T12:00:55;2.38;;;2.05;;
7479;SDS011;3781;42.272;22.658;2023-07-31T12:03:26;2.53;;;2.08;;
7479;SDS011;3781;42.272;22.658;2023-07-31T12:05:56;2.60;;;2.40;;
7479;SDS011;3781;42.272;22.658;2023-07-31T12:08:22;2.75;;;2.28;;
7479;SDS011;3781;42.272;22.658;2023-07-31T12:10:51;2.30;;;2.10;;
7479;SDS011;3781;42.272;22.658;2023-07-31T12:13:25;2.67;;;2.42;;
7479;SDS011;3781;42.272;22.658;2023-07-31T12:15:53;2.72;;;2.30;;
7479;SDS011;3781;42.272;22.658;2023-07-31T12:18:26;2.38;;;1.98;;
7479;SDS011;3781;42.272;22.658;2023-07-31T12:20:54;2.03;;;1.83;;
7479;SDS011;3781;42.272;22.658;2023-07-31T12:23:27;2.88;;;2.45;;
7479;SDS011;3781;42.272;22.658;2023-07-31T12:26:02;4.57;;;2.08;;
7479;SDS011;3781;42.272;22.658;2023-07-31T12:28:29;3.50;;;2.40;;
7479;SDS011;3781;42.272;22.658;2023-07-31T12:30:57;2.42;;;2.22;;
7479;SDS011;3781;42.272;22.658;2023-07-31T12:33:29;2.22;;;2.13;;
7479;SDS011;3781;42.272;22.658;2023-07-31T12:35:57;3.78;;;2.97;;
7479;SDS011;3781;42.272;22.658;2023-07-31T12:38:26;2.58;;;2.25;;
7479;SDS011;3781;42.272;22.658;2023-07-31T12:40:52;2.97;;;2.65;;
7479;SDS011;3781;42.272;22.658;2023-07-31T12:43:19;2.50;;;2.28;;
7479;SDS011;3781;42.272;22.658;2023-07-31T12:45:46;3.65;;;3.17;;
7479;SDS011;3781;42.272;22.658;2023-07-31T12:48:16;3.13;;;2.42;;
7479;SDS011;3781;42.272;22.658;2023-07-31T12:50:43;4.13;;;2.65;;
7479;SDS011;3781;42.272;22.658;2023-07-31T12:53:10;2.80;;;2.50;;
7479;SDS011;3781;42.272;22.658;2023-07-31T12:55:38;3.55;;;2.72;;
7479;SDS011;3781;42.272;22.658;2023-07-31T12:58:05;3.05;;;2.63;;
7479;SDS011;3781;42.272;22.658;2023-07-31T13:00:31;2.40;;;2.15;;
7479;SDS011;3781;42.272;22.658;2023-07-31T13:02:58;2.72;;;2.20;;
7479;SDS011;3781;42.272;22.658;2023-07-31T13:05:25;2.47;;;2.28;;
7479;SDS011;3781;42.272;22.658;2023-07-31T13:07:52;2.22;;;2.03;;
7479;SDS011;3781;42.272;22.658;2023-07-31T13:10:22;3.00;;;2.45;;
7479;SDS011;3781;42.272;22.658;2023-07-31T13:12:53;2.75;;;2.10;;
7479;SDS011;3781;42.272;22.658;2023-07-31T13:15:19;2.67;;;2.10;;
7479;SDS011;3781;42.272;22.658;2023-07-31T13:17:46;3.20;;;2.47;;
7479;SDS011;3781;42.272;22.658;2023-07-31T13:20:13;2.80;;;2.30;;
7479;SDS011;3781;42.272;22.658;2023-07-31T13:22:40;1.88;;;1.77;;
7479;SDS011;3781;42.272;22.658;2023-07-31T13:25:07;2.47;;;2.28;;
7479;SDS011;3781;42.272;22.658;2023-07-31T13:27:34;2.92;;;2.40;;
7479;SDS011;3781;42.272;22.658;2023-07-31T13:30:03;2.40;;;2.22;;
7479;SDS011;3781;42.272;22.658;2023-07-31T13:32:31;2.50;;;2.13;;
7479;SDS011;3781;42.272;22.658;2023-07-31T13:37:33;2.38;;;2.17;;
7479;SDS011;3781;42.272;22.658;2023-07-31T13:40:02;2.47;;;2.22;;
7479;SDS011;3781;42.272;22.658;2023-07-31T13:42:29;3.08;;;2.20;;
7479;SDS011;3781;42.272;22.658;2023-07-31T13:44:56;3.15;;;2.67;;
7479;SDS011;3781;42.272;22.658;2023-07-31T13:47:24;2.97;;;2.67;;
7479;SDS011;3781;42.272;22.658;2023-07-31T13:49:51;2.60;;;2.40;;
7479;SDS011;3781;42.272;22.658;2023-07-31T13:52:18;2.88;;;2.65;;
7479;SDS011;3781;42.272;22.658;2023-07-31T13:54:44;2.60;;;2.40;;
7479;SDS011;3781;42.272;22.658;2023-07-31T13:57:11;2.10;;;1.98;;
7479;SDS011;3781;42.272;22.658;2023-07-31T13:59:38;2.22;;;2.00;;
7479;SDS011;3781;42.272;22.658;2023-07-31T14:02:04;1.92;;;1.83;;
7479;SDS011;3781;42.272;22.658;2023-07-31T14:04:33;1.83;;;1.73;;
7479;SDS011;3781;42.272;22.658;2023-07-31T14:06:59;2.20;;;2.08;;
7479;SDS011;3781;42.272;22.658;2023-07-31T14:09:26;2.13;;;1.88;;
7479;SDS011;3781;42.272;22.658;2023-07-31T14:11:53;2.13;;;2.03;;
7479;SDS011;3781;42.272;22.658;2023-07-31T14:14:20;2.15;;;1.98;;
7479;SDS011;3781;42.272;22.658;2023-07-31T14:16:47;1.90;;;1.80;;
7479;SDS011;3781;42.272;22.658;2023-07-31T14:19:13;2.85;;;2.65;;
7479;SDS011;3781;42.272;22.658;2023-07-31T14:21:42;1.90;;;1.80;;
7479;SDS011;3781;42.272;22.658;2023-07-31T14:24:11;1.80;;;1.70;;
7479;SDS011;3781;42.272;22.658;2023-07-31T14:26:38;2.03;;;1.73;;
7479;SDS011;3781;42.272;22.658;2023-07-31T14:29:05;2.63;;;2.42;;
7479;SDS011;3781;42.272;22.658;2023-07-31T14:31:31;2.53;;;2.30;;
7479;SDS011;3781;42.272;22.658;2023-07-31T14:34:02;2.42;;;2.20;;
7479;SDS011;3781;42.272;22.658;2023-07-31T14:36:29;2.10;;;2.00;;
7479;SDS011;3781;42.272;22.658;2023-07-31T14:38:59;2.58;;;2.38;;
7479;SDS011;3781;42.272;22.658;2023-07-31T14:41:26;2.00;;;1.80;;
7479;SDS011;3781;42.272;22.658;2023-07-31T14:43:55;1.95;;;1.63;;
7479;SDS011;3781;42.272;22.658;2023-07-31T14:46:40;1.50;;;1.40;;
7479;SDS011;3781;42.272;22.658;2023-07-31T14:49:11;2.22;;;1.92;;
7479;SDS011;3781;42.272;22.658;2023-07-31T14:51:41;2.13;;;1.70;;
7479;SDS011;3781;42.272;22.658;2023-07-31T14:54:09;1.80;;;1.70;;
7479;SDS011;3781;42.272;22.658;2023-07-31T14:56:36;1.40;;;1.30;;
7479;SDS011;3781;42.272;22.658;2023-07-31T14:59:02;2.63;;;2.35;;
7479;SDS011;3781;42.272;22.658;2023-07-31T15:01:29;1.50;;;1.50;;
7479;SDS011;3781;42.272;22.658;2023-07-31T15:03:56;2.17;;;1.98;;
7479;SDS011;3781;42.272;22.658;2023-07-31T15:06:23;1.13;;;1.02;;
7479;SDS011;3781;42.272;22.658;2023-07-31T15:08:55;1.35;;;1.27;;
7479;SDS011;3781;42.272;22.658;2023-07-31T15:11:23;2.13;;;1.95;;
7479;SDS011;3781;42.272;22.658;2023-07-31T15:13:49;2.10;;;1.65;;